Time;durP1;ratioP1;P1;durP2;ratioP2;P2;SDS_P1;SDS_P2;PMS_P1;PMS_P2;Temp;Humidity;BMP_temperature;BMP_pressure;BME280_temperature;BME280_humidity;BME280_pressure;Samples;Min_cycle;Max_cycle;Signal;HPM_P1;HPM_P2
2022/03/23 00:01:14;;;;;;;141.48;55.00;;;;;;;;;;5066692;28;20204;-90
2022/03/23 00:03:41;;;;;;;151.60;56.65;;;;;;;;;;5066766;28;20204;-90
2022/03/23 00:06:08;;;;;;;151.95;55.30;;;;;;;;;;5066585;28;20261;-89
2022/03/23 00:08:34;;;;;;;147.43;56.10;;;;;;;;;;5066106;28;20771;-89
2022/03/23 00:11:03;;;;;;;146.15;56.25;;;;;;;;;;5065608;28;20200;-89
2022/03/23 00:13:29;;;;;;;150.32;56.72;;;;;;;;;;5065453;28;20204;-91
2022/03/23 00:15:56;;;;;;;144.02;55.55;;;;;;;;;;5066315;28;21751;-90
2022/03/23 00:18:22;;;;;;;140.73;53.85;;;;;;;;;;5066372;28;20204;-90
2022/03/23 00:20:49;;;;;;;148.63;55.85;;;;;;;;;;5065182;28;20250;-89
2022/03/23 00:23:15;;;;;;;142.40;55.70;;;;;;;;;;5064514;28;20250;-89
2022/03/23 00:25:42;;;;;;;140.82;54.45;;;;;;;;;;5063913;28;20208;-89
2022/03/23 00:28:10;;;;;;;138.00;54.95;;;;;;;;;;5063801;28;20196;-90
2022/03/23 00:30:37;;;;;;;140.70;53.95;;;;;;;;;;5065636;28;20598;-89
2022/03/23 00:33:05;;;;;;;142.70;56.00;;;;;;;;;;5065609;28;20200;-89
2022/03/23 00:35:31;;;;;;;142.27;53.75;;;;;;;;;;5065774;28;20762;-88
2022/03/23 00:37:58;;;;;;;139.68;53.70;;;;;;;;;;5065771;28;20351;-89
2022/03/23 00:40:25;;;;;;;139.13;54.38;;;;;;;;;;5065701;28;20215;-90
2022/03/23 00:42:52;;;;;;;137.77;54.20;;;;;;;;;;5065515;28;20199;-89
2022/03/23 00:45:20;;;;;;;140.32;54.78;;;;;;;;;;5064648;28;20211;-89
2022/03/23 00:47:48;;;;;;;139.65;54.50;;;;;;;;;;5064046;28;20204;-90
2022/03/23 00:50:14;;;;;;;141.68;54.22;;;;;;;;;;5065061;28;20272;-87
2022/03/23 00:52:41;;;;;;;139.40;54.22;;;;;;;;;;5045036;28;20243;-90
2022/03/23 00:55:09;;;;;;;138.20;53.90;;;;;;;;;;5049300;28;20255;-90
2022/03/23 00:57:36;;;;;;;137.50;53.90;;;;;;;;;;5064839;28;20228;-89
2022/03/23 01:00:02;;;;;;;144.85;57.05;;;;;;;;;;5065197;28;20204;-89
2022/03/23 01:02:30;;;;;;;140.52;54.45;;;;;;;;;;5082332;28;20196;-90
2022/03/23 01:04:57;;;;;;;139.10;53.58;;;;;;;;;;5084756;28;20195;-90
2022/03/23 01:07:23;;;;;;;143.55;54.90;;;;;;;;;;5084123;28;20195;-90
2022/03/23 01:09:49;;;;;;;144.15;56.30;;;;;;;;;;5082650;28;20199;-90
2022/03/23 01:12:16;;;;;;;144.50;54.92;;;;;;;;;;5077248;28;20221;-88
2022/03/23 01:14:43;;;;;;;141.18;54.05;;;;;;;;;;5044219;28;20227;-89
2022/03/23 01:17:09;;;;;;;145.30;54.30;;;;;;;;;;5057933;28;20223;-89
2022/03/23 01:19:37;;;;;;;143.02;53.85;;;;;;;;;;5063663;28;20263;-90
2022/03/23 01:22:04;;;;;;;139.77;52.80;;;;;;;;;;5064724;28;20222;-90
2022/03/23 01:24:31;;;;;;;140.95;54.13;;;;;;;;;;5064901;28;20196;-91
2022/03/23 01:26:57;;;;;;;139.98;54.10;;;;;;;;;;5064006;28;20797;-91
2022/03/23 01:29:24;;;;;;;138.73;53.45;;;;;;;;;;5064324;28;20594;-89
2022/03/23 01:31:50;;;;;;;146.60;54.85;;;;;;;;;;5063807;28;20278;-90
2022/03/23 01:34:17;;;;;;;146.02;54.30;;;;;;;;;;5064199;28;20255;-90
2022/03/23 01:36:45;;;;;;;142.57;52.92;;;;;;;;;;5064451;28;20285;-90
2022/03/23 01:39:11;;;;;;;144.75;54.25;;;;;;;;;;5064256;28;20227;-89
2022/03/23 01:41:39;;;;;;;138.57;53.00;;;;;;;;;;5064288;28;20257;-89
2022/03/23 01:44:12;;;;;;;138.38;53.40;;;;;;;;;;5064719;28;20230;-91
2022/03/23 01:46:39;;;;;;;141.45;54.88;;;;;;;;;;5062574;28;20250;-89
2022/03/23 01:49:05;;;;;;;142.70;54.65;;;;;;;;;;5062624;28;20398;-90
2022/03/23 01:51:32;;;;;;;140.50;55.30;;;;;;;;;;5063597;28;20191;-89
2022/03/23 01:54:00;;;;;;;141.68;55.05;;;;;;;;;;5063680;28;20258;-90
2022/03/23 01:56:26;;;;;;;142.00;54.22;;;;;;;;;;5063289;28;20297;-90
2022/03/23 01:58:53;;;;;;;141.90;54.90;;;;;;;;;;5063660;28;20242;-91
2022/03/23 02:01:20;;;;;;;139.18;54.25;;;;;;;;;;5061594;28;20219;-90
2022/03/23 02:03:46;;;;;;;142.52;54.80;;;;;;;;;;5062377;28;20223;-90
2022/03/23 02:06:13;;;;;;;139.93;53.97;;;;;;;;;;5064183;28;20188;-91
2022/03/23 02:08:39;;;;;;;140.23;54.60;;;;;;;;;;5063798;28;20222;-89
2022/03/23 02:11:07;;;;;;;146.27;54.17;;;;;;;;;;5063244;28;20196;-88
2022/03/23 02:13:33;;;;;;;142.60;53.35;;;;;;;;;;5062969;28;20196;-89
2022/03/23 02:16:01;;;;;;;141.32;51.75;;;;;;;;;;5063801;28;20227;-89
2022/03/23 02:18:27;;;;;;;143.10;54.42;;;;;;;;;;5063159;28;20226;-89
2022/03/23 02:20:54;;;;;;;146.57;55.30;;;;;;;;;;5063457;28;20204;-90
2022/03/23 02:23:22;;;;;;;139.55;52.30;;;;;;;;;;5063340;28;20230;-89
2022/03/23 02:25:50;;;;;;;143.27;54.17;;;;;;;;;;5063658;28;20230;-90
2022/03/23 02:28:17;;;;;;;143.93;55.03;;;;;;;;;;5063161;28;20196;-89
2022/03/23 02:30:43;;;;;;;151.52;54.17;;;;;;;;;;5063680;28;20346;-89
2022/03/23 02:33:10;;;;;;;139.73;52.20;;;;;;;;;;5063870;28;20222;-91
2022/03/23 02:35:36;;;;;;;142.32;54.67;;;;;;;;;;5062484;28;20231;-89
2022/03/23 02:38:03;;;;;;;147.70;55.03;;;;;;;;;;5061647;28;20200;-89
2022/03/23 02:40:31;;;;;;;143.25;54.05;;;;;;;;;;5062123;28;20234;-90
2022/03/23 02:42:57;;;;;;;147.63;54.40;;;;;;;;;;5062278;28;20205;-91
2022/03/23 02:45:24;;;;;;;144.32;54.40;;;;;;;;;;5061705;28;20258;-91
2022/03/23 02:47:50;;;;;;;142.48;54.10;;;;;;;;;;5061296;28;20196;-91
2022/03/23 02:50:17;;;;;;;147.43;55.67;;;;;;;;;;5062624;28;20200;-90
2022/03/23 03:03:47;;;;;;;141.68;52.50;;;;;;;;;;5043553;28;20211;-89
2022/03/23 03:06:14;;;;;;;146.15;54.13;;;;;;;;;;5043401;28;20224;-92
2022/03/23 03:08:47;;;;;;;136.45;50.75;;;;;;;;;;5082324;28;20203;-90
2022/03/23 03:11:14;;;;;;;144.73;53.53;;;;;;;;;;5069344;28;20200;-89
2022/03/23 03:13:42;;;;;;;146.52;53.38;;;;;;;;;;5082650;28;20222;-91
2022/03/23 03:16:09;;;;;;;142.40;53.20;;;;;;;;;;5082139;28;20272;-88
2022/03/23 03:18:35;;;;;;;137.80;52.20;;;;;;;;;;5081765;28;20253;-89
2022/03/23 03:21:04;;;;;;;139.35;53.33;;;;;;;;;;5082879;28;20195;-91
2022/03/23 03:23:31;;;;;;;142.00;52.20;;;;;;;;;;5083001;28;20282;-91
2022/03/23 03:25:57;;;;;;;141.25;54.63;;;;;;;;;;5071262;28;20295;-90
2022/03/23 03:28:24;;;;;;;155.43;55.28;;;;;;;;;;5078953;28;20259;-90
2022/03/23 03:30:51;;;;;;;143.23;53.95;;;;;;;;;;5083511;28;20709;-90
2022/03/23 03:33:18;;;;;;;137.60;51.72;;;;;;;;;;5084886;28;20195;-90
2022/03/23 03:35:44;;;;;;;139.45;52.63;;;;;;;;;;5086246;28;20238;-90
2022/03/23 03:38:11;;;;;;;137.52;51.70;;;;;;;;;;5085783;28;20195;-90
2022/03/23 03:40:38;;;;;;;141.25;51.83;;;;;;;;;;5078101;28;20216;-90
2022/03/23 03:43:05;;;;;;;135.15;51.78;;;;;;;;;;5080350;28;20321;-89
2022/03/23 03:45:32;;;;;;;139.75;52.70;;;;;;;;;;5086354;28;20258;-91
2022/03/23 03:48:00;;;;;;;138.40;52.22;;;;;;;;;;5085525;28;20659;-90
2022/03/23 03:50:26;;;;;;;138.25;52.28;;;;;;;;;;5086099;28;20203;-91
2022/03/23 03:52:53;;;;;;;144.27;52.45;;;;;;;;;;5085639;28;20241;-90
2022/03/23 03:55:19;;;;;;;137.88;52.60;;;;;;;;;;5080276;28;20204;-90
2022/03/23 03:57:46;;;;;;;144.23;52.60;;;;;;;;;;5075607;28;20223;-90
2022/03/23 04:00:13;;;;;;;140.77;52.53;;;;;;;;;;5086185;28;20219;-91
2022/03/23 04:02:40;;;;;;;141.00;52.25;;;;;;;;;;5085742;28;20200;-92
2022/03/23 04:05:08;;;;;;;140.48;51.78;;;;;;;;;;5086329;28;20229;-91
2022/03/23 04:07:35;;;;;;;142.25;52.38;;;;;;;;;;5085586;28;20195;-91
2022/03/23 04:10:01;;;;;;;145.73;54.00;;;;;;;;;;5082599;28;20196;-90
2022/03/23 04:12:28;;;;;;;139.85;52.97;;;;;;;;;;5071088;28;20651;-89
2022/03/23 04:14:54;;;;;;;141.50;51.88;;;;;;;;;;5085407;28;20714;-89
2022/03/23 04:17:21;;;;;;;151.20;54.50;;;;;;;;;;5085272;28;20211;-91
2022/03/23 04:19:47;;;;;;;147.50;54.72;;;;;;;;;;5085928;28;20199;-91
2022/03/23 04:22:15;;;;;;;143.25;53.10;;;;;;;;;;5086098;28;20191;-91
2022/03/23 04:24:42;;;;;;;148.27;54.55;;;;;;;;;;5085850;28;20207;-90
2022/03/23 04:27:08;;;;;;;145.43;53.72;;;;;;;;;;5068831;28;20196;-91
2022/03/23 04:29:35;;;;;;;152.68;53.85;;;;;;;;;;5085339;28;20222;-90
2022/03/23 04:32:01;;;;;;;148.75;54.60;;;;;;;;;;5085260;28;20269;-90
2022/03/23 04:34:28;;;;;;;141.20;52.55;;;;;;;;;;5085326;28;20253;-90
2022/03/23 04:36:54;;;;;;;137.20;52.72;;;;;;;;;;5085241;28;20223;-91
2022/03/23 04:39:22;;;;;;;144.93;54.30;;;;;;;;;;5084989;28;20206;-91
2022/03/23 04:41:49;;;;;;;144.65;55.10;;;;;;;;;;5066957;28;20254;-92
2022/03/23 04:44:15;;;;;;;143.30;52.83;;;;;;;;;;5085680;28;20203;-92
2022/03/23 04:46:42;;;;;;;147.73;55.35;;;;;;;;;;5084460;28;20199;-91
2022/03/23 04:49:08;;;;;;;146.43;55.22;;;;;;;;;;5084272;28;20249;-90
2022/03/23 04:51:35;;;;;;;142.68;54.47;;;;;;;;;;5083810;28;20223;-91
2022/03/23 04:54:02;;;;;;;140.48;54.08;;;;;;;;;;5083835;28;20264;-90
2022/03/23 04:56:30;;;;;;;147.27;55.28;;;;;;;;;;5069637;28;20231;-91
2022/03/23 04:58:57;;;;;;;138.52;54.25;;;;;;;;;;5081901;28;20223;-91
2022/03/23 05:01:23;;;;;;;142.07;54.92;;;;;;;;;;5083934;28;20203;-92
2022/03/23 05:03:50;;;;;;;141.35;55.22;;;;;;;;;;5083951;28;20241;-90
2022/03/23 05:06:16;;;;;;;140.27;53.03;;;;;;;;;;5084357;28;20298;-91
2022/03/23 05:08:43;;;;;;;146.48;54.05;;;;;;;;;;5059985;28;20193;-91
2022/03/23 05:11:09;;;;;;;142.02;55.17;;;;;;;;;;5056820;28;20226;-91
2022/03/23 05:13:37;;;;;;;142.63;56.38;;;;;;;;;;5064042;28;20200;-90
2022/03/23 05:16:04;;;;;;;140.13;54.33;;;;;;;;;;5063216;28;20228;-90
2022/03/23 05:18:30;;;;;;;145.07;54.40;;;;;;;;;;5063868;28;20227;-90
2022/03/23 05:20:57;;;;;;;144.18;54.88;;;;;;;;;;5064495;28;20258;-91
2022/03/23 05:23:23;;;;;;;148.48;53.53;;;;;;;;;;5064528;28;20249;-90
2022/03/23 05:25:50;;;;;;;138.63;53.40;;;;;;;;;;5064829;28;20265;-90
2022/03/23 05:28:16;;;;;;;142.93;54.53;;;;;;;;;;5065151;28;20242;-89
2022/03/23 05:30:44;;;;;;;146.45;54.40;;;;;;;;;;5064693;28;20250;-89
2022/03/23 05:33:10;;;;;;;150.02;55.08;;;;;;;;;;5064825;28;20196;-89
2022/03/23 05:35:37;;;;;;;144.50;54.42;;;;;;;;;;5064847;28;20234;-89
2022/03/23 05:38:04;;;;;;;148.07;56.05;;;;;;;;;;5064002;28;20743;-90
2022/03/23 05:40:30;;;;;;;143.77;55.30;;;;;;;;;;5063568;28;20192;-90
2022/03/23 05:42:57;;;;;;;153.85;55.80;;;;;;;;;;5063164;28;20274;-90
2022/03/23 05:45:23;;;;;;;147.77;56.30;;;;;;;;;;5045938;28;20266;-90
2022/03/23 05:47:53;;;;;;;145.98;55.55;;;;;;;;;;5049490;28;20222;-89
2022/03/23 05:50:20;;;;;;;152.10;55.50;;;;;;;;;;5061172;28;20205;-91
2022/03/23 05:52:46;;;;;;;165.45;55.20;;;;;;;;;;5045546;28;20449;-90
2022/03/23 05:55:13;;;;;;;152.75;55.60;;;;;;;;;;5063270;28;20192;-90
2022/03/23 05:57:39;;;;;;;155.25;56.85;;;;;;;;;;5062187;28;20236;-91
2022/03/23 06:00:07;;;;;;;150.65;56.00;;;;;;;;;;5063384;28;21316;-90
2022/03/23 06:02:34;;;;;;;153.68;55.60;;;;;;;;;;5064185;28;20200;-92
2022/03/23 06:05:01;;;;;;;155.05;57.92;;;;;;;;;;5064050;28;20200;-91
2022/03/23 06:07:28;;;;;;;152.60;56.15;;;;;;;;;;5063504;28;20249;-91
2022/03/23 06:09:54;;;;;;;158.38;59.38;;;;;;;;;;5063339;28;20196;-92
2022/03/23 06:12:21;;;;;;;161.55;58.53;;;;;;;;;;5062058;28;20207;-91
2022/03/23 06:14:47;;;;;;;160.75;58.17;;;;;;;;;;5062767;28;20227;-91
2022/03/23 06:17:14;;;;;;;154.00;56.55;;;;;;;;;;5062518;28;20227;-91
2022/03/23 06:19:40;;;;;;;156.73;57.35;;;;;;;;;;5063424;28;20602;-92
2022/03/23 06:22:08;;;;;;;158.18;57.17;;;;;;;;;;5063983;28;20207;-92
2022/03/23 06:24:35;;;;;;;164.18;58.97;;;;;;;;;;5064182;28;20729;-91
2022/03/23 06:27:01;;;;;;;163.25;59.33;;;;;;;;;;5062266;28;20203;-91
2022/03/23 06:29:28;;;;;;;159.73;57.80;;;;;;;;;;5063434;28;20258;-91
2022/03/23 06:31:55;;;;;;;167.67;59.43;;;;;;;;;;5060497;28;20223;-92
2022/03/23 06:34:21;;;;;;;158.30;57.28;;;;;;;;;;5063771;28;20470;-91
2022/03/23 06:36:48;;;;;;;168.85;58.70;;;;;;;;;;5062627;28;20223;-92
2022/03/23 06:39:15;;;;;;;170.27;61.20;;;;;;;;;;5076964;28;20195;-91
2022/03/23 06:41:42;;;;;;;164.50;59.60;;;;;;;;;;5064287;28;20227;-92
2022/03/23 06:44:08;;;;;;;166.67;60.47;;;;;;;;;;5073436;28;20471;-91
2022/03/23 06:46:35;;;;;;;166.20;58.87;;;;;;;;;;5083356;28;20528;-92
2022/03/23 06:49:02;;;;;;;163.43;59.40;;;;;;;;;;5083025;28;20442;-92
2022/03/23 06:51:28;;;;;;;171.03;61.93;;;;;;;;;;5082090;28;20472;-92
2022/03/23 06:53:54;;;;;;;167.47;60.40;;;;;;;;;;5076266;28;20438;-91
2022/03/23 06:56:22;;;;;;;166.90;60.78;;;;;;;;;;5060994;28;20486;-90
2022/03/23 06:58:49;;;;;;;167.30;60.03;;;;;;;;;;5062215;28;20246;-92
2022/03/23 07:01:15;;;;;;;170.57;60.23;;;;;;;;;;5061606;28;20473;-92
2022/03/23 07:03:42;;;;;;;172.43;61.43;;;;;;;;;;5069558;28;20945;-92
2022/03/23 07:06:08;;;;;;;173.50;60.43;;;;;;;;;;5080797;28;20445;-91
2022/03/23 07:11:18;;;;;;;167.60;62.00;;;;;;;;;;5059190;28;20560;-92
2022/03/23 07:13:46;;;;;;;168.80;59.53;;;;;;;;;;5069451;28;20446;-91
2022/03/23 07:16:13;;;;;;;165.37;59.90;;;;;;;;;;5082126;28;20453;-91
2022/03/23 07:18:39;;;;;;;161.17;58.83;;;;;;;;;;5082100;28;20499;-92
2022/03/23 07:21:06;;;;;;;173.13;62.30;;;;;;;;;;5081494;28;20491;-91
2022/03/23 07:23:34;;;;;;;173.00;60.33;;;;;;;;;;5081470;28;20529;-91
2022/03/23 07:26:01;;;;;;;178.17;61.80;;;;;;;;;;5070699;28;20915;-91
2022/03/23 07:28:27;;;;;;;175.07;60.73;;;;;;;;;;5061610;28;20443;-91
2022/03/23 07:30:55;;;;;;;180.40;62.93;;;;;;;;;;5060671;28;20439;-90
2022/03/23 07:33:22;;;;;;;178.77;62.83;;;;;;;;;;5057105;28;20446;-91
2022/03/23 07:35:48;;;;;;;179.43;63.57;;;;;;;;;;5061116;28;20450;-91
2022/03/23 07:38:15;;;;;;;172.67;61.40;;;;;;;;;;5060392;28;20512;-92
2022/03/23 07:40:42;;;;;;;181.10;64.10;;;;;;;;;;5061494;28;20898;-90
2022/03/23 07:43:08;;;;;;;165.17;60.37;;;;;;;;;;5061258;28;20480;-92
2022/03/23 07:45:35;;;;;;;159.30;60.77;;;;;;;;;;5061732;28;20446;-93
2022/03/23 07:48:03;;;;;;;155.30;60.70;;;;;;;;;;5060760;28;20451;-93
2022/03/23 07:50:29;;;;;;;153.30;59.47;;;;;;;;;;5042014;28;20455;-92
2022/03/23 07:52:56;;;;;;;155.10;61.97;;;;;;;;;;5041688;28;20455;-91
2022/03/23 07:55:23;;;;;;;154.87;60.50;;;;;;;;;;5061554;28;20516;-90
2022/03/23 07:57:50;;;;;;;151.87;60.70;;;;;;;;;;5059792;28;20497;-92
2022/03/23 08:00:17;;;;;;;156.00;62.37;;;;;;;;;;5060076;28;20493;-93
2022/03/23 08:02:44;;;;;;;163.20;63.37;;;;;;;;;;5055601;28;20458;-91
2022/03/23 08:05:11;;;;;;;156.40;61.53;;;;;;;;;;5056516;28;20934;-90
2022/03/23 08:07:38;;;;;;;168.63;64.60;;;;;;;;;;5060119;28;20446;-92
2022/03/23 08:10:05;;;;;;;159.37;62.83;;;;;;;;;;5057186;28;20465;-91
2022/03/23 08:12:31;;;;;;;155.47;61.40;;;;;;;;;;5057736;28;20443;-90
2022/03/23 08:14:58;;;;;;;155.23;61.10;;;;;;;;;;5059911;28;20451;-90
2022/03/23 08:17:24;;;;;;;151.73;59.50;;;;;;;;;;5062685;28;20521;-94
2022/03/23 08:20:32;;;;;;;161.07;60.27;;;;;;;;;;5062067;28;20442;-91
2022/03/23 08:22:39;;;;;;;163.00;61.50;;;;;;;;;;5065273;28;20443;-88
2022/03/23 08:25:06;;;;;;;156.00;60.00;;;;;;;;;;5065236;28;20472;-90
2022/03/23 08:27:32;;;;;;;155.27;60.40;;;;;;;;;;5065172;28;20969;-89
2022/03/23 08:29:59;;;;;;;154.07;59.27;;;;;;;;;;5065566;28;20863;-89
2022/03/23 08:32:26;;;;;;;156.10;59.97;;;;;;;;;;5060910;28;20515;-91
2022/03/23 08:34:53;;;;;;;160.40;62.33;;;;;;;;;;5064821;28;20438;-89
2022/03/23 08:37:19;;;;;;;155.93;61.27;;;;;;;;;;5064671;28;20486;-88
2022/03/23 08:39:47;;;;;;;154.77;60.63;;;;;;;;;;5064811;28;20439;-88
2022/03/23 08:42:13;;;;;;;155.73;60.90;;;;;;;;;;5065285;28;20442;-88
2022/03/23 08:44:41;;;;;;;158.10;60.20;;;;;;;;;;5065429;28;20438;-90
2022/03/23 08:47:08;;;;;;;157.90;60.77;;;;;;;;;;5065117;28;20464;-88
2022/03/23 08:49:34;;;;;;;157.70;60.90;;;;;;;;;;5065254;28;20510;-91
2022/03/23 08:52:01;;;;;;;157.27;60.83;;;;;;;;;;5065237;28;20473;-90
2022/03/23 08:54:27;;;;;;;159.00;61.00;;;;;;;;;;5065376;28;20466;-89
2022/03/23 08:56:55;;;;;;;158.37;60.93;;;;;;;;;;5064437;28;20458;-89
2022/03/23 08:59:22;;;;;;;167.10;62.83;;;;;;;;;;5064172;28;20477;-91
2022/03/23 09:01:48;;;;;;;165.83;62.33;;;;;;;;;;5045446;28;20467;-90
2022/03/23 09:04:15;;;;;;;166.07;61.40;;;;;;;;;;5051211;28;20438;-90
2022/03/23 09:06:42;;;;;;;157.00;61.57;;;;;;;;;;5064717;28;20451;-91
2022/03/23 09:09:08;;;;;;;161.20;61.60;;;;;;;;;;5064560;28;20678;-94
2022/03/23 09:11:35;;;;;;;163.60;62.77;;;;;;;;;;5063553;28;20504;-91
2022/03/23 09:14:03;;;;;;;162.10;61.30;;;;;;;;;;5063590;28;20442;-94
2022/03/23 09:16:29;;;;;;;164.70;62.73;;;;;;;;;;5064130;28;20454;-89
2022/03/23 09:18:56;;;;;;;160.07;62.00;;;;;;;;;;5066868;28;20520;-89
2022/03/23 09:21:23;;;;;;;157.37;60.87;;;;;;;;;;5084760;28;20467;-89
2022/03/23 09:23:50;;;;;;;164.17;61.87;;;;;;;;;;5084540;28;20441;-88
2022/03/23 09:26:16;;;;;;;160.27;62.70;;;;;;;;;;5070348;28;20518;-89
2022/03/23 09:28:43;;;;;;;165.40;61.73;;;;;;;;;;5061472;28;21284;-91
2022/03/23 09:31:11;;;;;;;163.43;63.60;;;;;;;;;;5083635;28;20781;-90
2022/03/23 09:33:37;;;;;;;163.30;62.70;;;;;;;;;;5084374;28;20446;-89
2022/03/23 09:36:04;;;;;;;161.57;61.87;;;;;;;;;;5082503;28;20454;-88
2022/03/23 09:38:31;;;;;;;163.03;61.47;;;;;;;;;;5081545;28;20485;-90
2022/03/23 09:40:57;;;;;;;165.00;63.27;;;;;;;;;;5071744;28;20442;-92
2022/03/23 09:43:24;;;;;;;161.03;61.77;;;;;;;;;;5063876;28;20446;-91
2022/03/23 09:45:51;;;;;;;165.73;63.43;;;;;;;;;;5080757;28;20450;-90
2022/03/23 09:48:21;;;;;;;166.77;63.50;;;;;;;;;;5083516;28;20472;-90
2022/03/23 09:50:50;;;;;;;164.17;62.70;;;;;;;;;;5083755;28;20445;-90
2022/03/23 09:53:16;;;;;;;164.87;62.80;;;;;;;;;;5083935;28;20499;-88
2022/03/23 09:55:43;;;;;;;172.27;63.90;;;;;;;;;;5075395;28;20435;-93
2022/03/23 09:58:10;;;;;;;186.17;65.40;;;;;;;;;;5063324;28;20552;-89
2022/03/23 10:00:37;;;;;;;188.00;66.40;;;;;;;;;;5077239;28;20446;-93
2022/03/23 10:03:21;;;;;;;175.30;63.97;;;;;;;;;;5083690;28;20445;-90
2022/03/23 10:05:58;;;;;;;173.17;64.97;;;;;;;;;;5083201;28;20434;-89
2022/03/23 10:08:58;;;;;;;167.70;62.83;;;;;;;;;;5083274;28;20479;-88
2022/03/23 10:11:43;;;;;;;181.53;64.90;;;;;;;;;;5068388;28;20477;-90
2022/03/23 10:14:28;;;;;;;172.57;64.33;;;;;;;;;;5064381;28;20450;-90
2022/03/23 10:17:25;;;;;;;173.60;64.93;;;;;;;;;;5082259;28;21006;-90
2022/03/23 10:19:52;;;;;;;169.90;64.30;;;;;;;;;;5082374;28;20441;-91
2022/03/23 10:22:19;;;;;;;168.10;63.33;;;;;;;;;;5082297;28;20450;-90
2022/03/23 10:24:46;;;;;;;181.30;63.87;;;;;;;;;;5081365;28;20446;-89
2022/03/23 10:27:13;;;;;;;167.93;63.60;;;;;;;;;;5062533;28;20988;-90
2022/03/23 10:29:41;;;;;;;169.93;64.90;;;;;;;;;;5066987;28;20507;-91
2022/03/23 10:32:09;;;;;;;164.90;63.40;;;;;;;;;;5069814;28;20451;-91
2022/03/23 10:34:47;;;;;;;168.70;63.87;;;;;;;;;;5063222;28;20518;-93
2022/03/23 10:37:14;;;;;;;165.60;64.50;;;;;;;;;;5063339;28;20545;-90
2022/03/23 10:39:42;;;;;;;165.07;63.13;;;;;;;;;;5062759;28;20438;-95
2022/03/23 10:42:10;;;;;;;167.90;65.03;;;;;;;;;;5061262;28;20446;-92
2022/03/23 10:44:36;;;;;;;162.83;63.33;;;;;;;;;;5061388;28;20462;-91
2022/03/23 10:47:03;;;;;;;161.27;62.10;;;;;;;;;;5062150;28;20454;-92
2022/03/23 10:49:35;;;;;;;161.83;62.77;;;;;;;;;;5062342;28;20500;-90
2022/03/23 10:52:09;;;;;;;160.87;62.20;;;;;;;;;;5062968;28;20446;-89
2022/03/23 10:54:35;;;;;;;164.17;62.87;;;;;;;;;;5062573;28;20450;-91
2022/03/23 10:57:03;;;;;;;361.17;112.20;;;;;;;;;;5062479;28;20443;-92
2022/03/23 10:59:31;;;;;;;179.93;67.50;;;;;;;;;;5062646;28;20490;-90
2022/03/23 11:02:02;;;;;;;179.67;65.10;;;;;;;;;;5062866;28;20542;-90
2022/03/23 11:04:30;;;;;;;177.90;69.43;;;;;;;;;;5059048;28;20477;-89
2022/03/23 11:06:58;;;;;;;171.60;64.87;;;;;;;;;;5059996;28;20904;-90
2022/03/23 11:17:52;;;;;;;185.20;68.40;;;;;;;;;;5058682;28;20493;-90
2022/03/23 11:20:18;;;;;;;176.70;67.27;;;;;;;;;;5057722;28;20617;-89
2022/03/23 11:22:45;;;;;;;177.53;67.60;;;;;;;;;;5061165;28;20439;-93
2022/03/23 11:25:11;;;;;;;174.90;66.13;;;;;;;;;;5060209;28;20497;-90
2022/03/23 11:27:40;;;;;;;168.07;66.23;;;;;;;;;;5060856;28;20438;-90
2022/03/23 11:30:07;;;;;;;166.20;66.20;;;;;;;;;;5060964;28;20449;-90
2022/03/23 11:32:37;;;;;;;168.47;64.70;;;;;;;;;;5060780;28;20450;-92
2022/03/23 11:35:06;;;;;;;170.13;67.10;;;;;;;;;;5067247;28;20449;-90
2022/03/23 11:37:34;;;;;;;172.90;68.50;;;;;;;;;;5065807;28;20465;-90
2022/03/23 11:40:00;;;;;;;169.33;65.87;;;;;;;;;;5061609;28;20485;-90
2022/03/23 11:42:29;;;;;;;168.03;67.27;;;;;;;;;;5061108;28;20507;-91
2022/03/23 11:44:57;;;;;;;171.07;66.43;;;;;;;;;;5061301;28;21212;-91
2022/03/23 11:47:34;;;;;;;169.40;66.07;;;;;;;;;;5062513;28;20443;-93
2022/03/23 11:50:06;;;;;;;168.17;66.77;;;;;;;;;;5058214;28;20500;-91
2022/03/23 11:52:35;;;;;;;170.40;66.57;;;;;;;;;;5063714;28;20430;-90
2022/03/23 11:58:19;;;;;;;175.23;67.17;;;;;;;;;;5062584;28;20477;-92
2022/03/23 12:00:50;;;;;;;169.57;66.17;;;;;;;;;;5062800;28;20450;-93
2022/03/23 12:03:31;;;;;;;176.63;66.43;;;;;;;;;;5065506;28;20469;-92
2022/03/23 12:06:09;;;;;;;169.93;67.60;;;;;;;;;;5065533;28;20491;-91
2022/03/23 12:08:49;;;;;;;169.40;65.63;;;;;;;;;;5066494;28;20461;-90
2022/03/23 12:11:35;;;;;;;168.13;65.73;;;;;;;;;;5065997;28;20450;-92
2022/03/23 12:14:02;;;;;;;167.87;66.33;;;;;;;;;;5066008;28;20941;-91
2022/03/23 12:16:47;;;;;;;167.40;65.40;;;;;;;;;;5065662;28;20535;-90
2022/03/23 12:19:17;;;;;;;165.57;65.43;;;;;;;;;;5065548;28;20520;-91
2022/03/23 12:21:48;;;;;;;167.00;65.90;;;;;;;;;;5066166;28;20485;-90
2022/03/23 12:24:19;;;;;;;165.03;65.87;;;;;;;;;;5066227;28;20488;-90
2022/03/23 12:26:49;;;;;;;175.50;67.17;;;;;;;;;;5064675;28;20855;-92
2022/03/23 12:29:21;;;;;;;172.23;67.90;;;;;;;;;;5065023;28;20468;-90
2022/03/23 12:31:47;;;;;;;169.07;67.20;;;;;;;;;;5064671;28;20508;-90
2022/03/23 12:34:18;;;;;;;174.00;66.33;;;;;;;;;;5066109;28;20500;-90
2022/03/23 12:36:58;;;;;;;170.30;69.20;;;;;;;;;;5064692;28;20446;-92
2022/03/23 12:39:36;;;;;;;169.03;66.20;;;;;;;;;;5064179;28;20498;-90
2022/03/23 12:42:16;;;;;;;171.27;66.23;;;;;;;;;;5082358;28;20444;-91
2022/03/23 12:44:43;;;;;;;170.27;67.40;;;;;;;;;;5086055;28;20441;-90
2022/03/23 12:47:12;;;;;;;170.03;67.63;;;;;;;;;;5084841;28;20457;-88
2022/03/23 12:58:04;;;;;;;168.73;66.60;;;;;;;;;;5085368;28;20468;-90
2022/03/23 13:00:32;;;;;;;172.23;68.53;;;;;;;;;;5085313;28;20438;-93
2022/03/23 13:03:31;;;;;;;178.80;68.87;;;;;;;;;;5085070;28;20448;-93
2022/03/23 13:06:09;;;;;;;172.63;67.60;;;;;;;;;;5085147;28;20468;-91
2022/03/23 13:08:38;;;;;;;177.27;70.57;;;;;;;;;;5085329;28;20460;-92
2022/03/23 13:11:06;;;;;;;179.10;69.07;;;;;;;;;;5080043;28;20441;-92
2022/03/23 13:13:33;;;;;;;183.30;73.37;;;;;;;;;;5081880;28;20445;-91
2022/03/23 13:15:59;;;;;;;178.07;69.20;;;;;;;;;;5084121;28;20489;-92
2022/03/23 13:18:27;;;;;;;180.20;70.67;;;;;;;;;;5083821;28;20530;-91
2022/03/23 13:20:54;;;;;;;182.17;71.10;;;;;;;;;;5065411;28;20440;-92
2022/03/23 13:23:22;;;;;;;184.87;72.00;;;;;;;;;;5083489;28;20464;-92
2022/03/23 13:26:02;;;;;;;198.60;73.07;;;;;;;;;;5078754;28;20491;-92
2022/03/23 13:28:28;;;;;;;181.27;72.10;;;;;;;;;;5065649;28;20457;-90
2022/03/23 13:30:58;;;;;;;185.53;71.80;;;;;;;;;;5069219;28;20445;-92
2022/03/23 13:33:26;;;;;;;180.03;69.50;;;;;;;;;;5084249;28;20449;-91
2022/03/23 13:35:54;;;;;;;184.60;71.50;;;;;;;;;;5083976;28;20453;-94
2022/03/23 13:38:22;;;;;;;183.10;69.47;;;;;;;;;;5084023;28;20977;-89
2022/03/23 13:43:34;;;;;;;185.03;69.90;;;;;;;;;;5084506;28;20473;-90
2022/03/23 13:46:01;;;;;;;189.60;70.97;;;;;;;;;;5084205;28;20454;-90
2022/03/23 13:48:30;;;;;;;187.93;70.80;;;;;;;;;;5084368;28;20939;-90
2022/03/23 13:50:56;;;;;;;190.67;69.37;;;;;;;;;;5083824;28;20964;-91
2022/03/23 13:53:24;;;;;;;197.20;70.90;;;;;;;;;;5084509;28;20457;-91
2022/03/23 13:55:52;;;;;;;184.60;69.30;;;;;;;;;;5076788;28;20442;-91
2022/03/23 13:58:20;;;;;;;179.50;69.67;;;;;;;;;;5084013;28;20478;-91
2022/03/23 14:00:47;;;;;;;181.37;69.87;;;;;;;;;;5083551;28;20473;-89
2022/03/23 14:03:17;;;;;;;180.40;70.30;;;;;;;;;;5080658;28;20532;-90
2022/03/23 14:06:01;;;;;;;178.10;68.27;;;;;;;;;;5064122;28;20516;-93
2022/03/23 14:08:30;;;;;;;179.93;69.37;;;;;;;;;;5083350;28;20455;-89
2022/03/23 14:10:58;;;;;;;177.80;67.37;;;;;;;;;;5067347;28;20489;-90
2022/03/23 14:13:26;;;;;;;182.63;69.70;;;;;;;;;;5081381;28;20441;-92
2022/03/23 14:15:53;;;;;;;196.13;67.00;;;;;;;;;;5082614;28;20497;-90
2022/03/23 14:18:21;;;;;;;184.20;67.30;;;;;;;;;;5083543;28;20472;-91
2022/03/23 14:20:54;;;;;;;188.47;69.60;;;;;;;;;;5081993;28;20452;-88
2022/03/23 14:23:21;;;;;;;179.80;70.80;;;;;;;;;;5078010;28;20499;-91
2022/03/23 14:25:50;;;;;;;139.80;64.75;;;;;;;;;;5073834;28;20455;-90
2022/03/23 14:28:19;;;;;;;170.13;65.60;;;;;;;;;;5083427;28;20537;-94
2022/03/23 14:30:47;;;;;;;350.10;103.07;;;;;;;;;;5083302;28;20442;-92
2022/03/23 14:33:17;;;;;;;175.40;67.20;;;;;;;;;;5082444;28;20532;-92
2022/03/23 14:35:44;;;;;;;178.23;67.90;;;;;;;;;;5082985;28;20457;-93
2022/03/23 14:38:12;;;;;;;231.87;73.63;;;;;;;;;;5083051;28;20438;-92
2022/03/23 14:40:38;;;;;;;182.00;68.03;;;;;;;;;;5075503;28;20494;-92
2022/03/23 14:43:08;;;;;;;178.97;66.90;;;;;;;;;;5081708;28;20467;-91
2022/03/23 14:45:43;;;;;;;181.93;67.67;;;;;;;;;;5083524;28;20454;-95